createdAt,value
2023-04-27T00:00:56.397Z,2.00
2023-04-27T00:04:21.286Z,1.70
2023-04-27T00:07:45.897Z,2.00
2023-04-27T00:11:11.286Z,1.60
2023-04-27T00:14:35.451Z,1.80
2023-04-27T00:17:59.820Z,1.57
2023-04-27T00:21:23.809Z,2.00
2023-04-27T00:24:47.919Z,1.87
2023-04-27T00:28:13.709Z,1.90
2023-04-27T00:31:37.534Z,1.70
2023-04-27T00:35:01.744Z,1.40
2023-04-27T00:38:25.157Z,1.73
2023-04-27T00:41:48.922Z,1.70
2023-04-27T00:45:14.499Z,1.70
2023-04-27T00:48:38.765Z,1.97
2023-04-27T00:52:02.618Z,1.80
2023-04-27T00:55:26.351Z,1.53
2023-04-27T00:58:50.119Z,1.70
2023-04-27T01:02:17.434Z,1.90
2023-04-27T01:05:43.809Z,2.00
2023-04-27T01:09:08.168Z,1.60
2023-04-27T01:12:32.245Z,1.90
2023-04-27T01:15:56.004Z,1.73
2023-04-27T01:19:21.026Z,1.90
2023-04-27T01:22:46.743Z,2.00
2023-04-27T01:26:16.163Z,1.63
2023-04-27T01:29:40.181Z,1.60
2023-04-27T01:33:06.170Z,1.83
2023-04-27T01:36:30.149Z,1.67
2023-04-27T01:39:54.004Z,2.00
2023-04-27T01:43:19.176Z,1.97
2023-04-27T01:46:43.225Z,1.50
2023-04-27T01:50:08.039Z,1.77
2023-04-27T01:53:31.913Z,1.90
2023-04-27T01:56:55.978Z,1.80
2023-04-27T02:00:21.548Z,1.70
2023-04-27T02:03:45.529Z,1.80
2023-04-27T02:07:09.672Z,1.67
2023-04-27T02:10:33.722Z,2.00
2023-04-27T02:13:57.548Z,1.60
2023-04-27T02:17:29.230Z,2.03
2023-04-27T02:20:53.030Z,1.77
2023-04-27T02:24:16.834Z,2.13
2023-04-27T02:27:42.534Z,1.70
2023-04-27T02:31:07.034Z,1.83
2023-04-27T02:34:32.309Z,2.20
2023-04-27T02:37:56.144Z,1.77
2023-04-27T02:41:21.390Z,2.00
2023-04-27T02:44:47.384Z,2.30
2023-04-27T02:48:11.217Z,1.70
2023-04-27T02:51:36.519Z,1.63
2023-04-27T02:55:00.130Z,1.70
2023-04-27T02:58:24.023Z,1.60
2023-04-27T03:01:47.505Z,1.70
2023-04-27T03:05:11.629Z,1.63
2023-04-27T03:08:36.848Z,1.80
2023-04-27T03:12:02.551Z,2.07
2023-04-27T03:15:26.604Z,2.30
2023-04-27T03:18:50.812Z,1.90
2023-04-27T03:22:14.321Z,1.63
2023-04-27T03:25:40.762Z,1.67
2023-04-27T03:29:04.966Z,1.73
2023-04-27T03:32:28.471Z,1.87
2023-04-27T03:35:57.578Z,1.70
2023-04-27T03:39:21.450Z,1.97
2023-04-27T03:42:46.743Z,1.73
2023-04-27T03:46:11.157Z,2.20
2023-04-27T03:49:34.970Z,2.30
2023-04-27T03:52:58.780Z,1.60
2023-04-27T03:56:22.487Z,1.73
2023-04-27T03:59:47.272Z,2.10
2023-04-27T04:03:11.328Z,1.80
2023-04-27T04:06:35.264Z,1.70
2023-04-27T04:09:59.180Z,2.10
2023-04-27T04:13:23.061Z,2.10
2023-04-27T04:16:48.200Z,2.03
2023-04-27T04:20:13.185Z,1.90
2023-04-27T04:23:37.518Z,1.70
2023-04-27T04:27:00.996Z,1.60
2023-04-27T04:30:24.846Z,2.30
2023-04-27T04:33:50.473Z,1.70
2023-04-27T04:37:14.285Z,1.80
2023-04-27T04:40:40.172Z,1.80
2023-04-27T04:44:03.981Z,1.73
2023-04-27T04:47:28.525Z,2.03
2023-04-27T04:50:53.917Z,1.57
2023-04-27T04:54:17.617Z,1.80
2023-04-27T04:57:41.346Z,1.80
2023-04-27T05:01:05.208Z,1.50
2023-04-27T05:04:29.169Z,2.00
2023-04-27T05:07:54.415Z,2.13
2023-04-27T05:11:18.194Z,2.20
2023-04-27T05:14:42.007Z,2.37
2023-04-27T05:18:05.980Z,1.97
2023-04-27T05:21:29.544Z,2.53
2023-04-27T05:24:54.359Z,2.40
2023-04-27T05:28:18.344Z,2.17
2023-04-27T05:31:42.203Z,2.20
2023-04-27T05:35:06.465Z,2.53
2023-04-27T05:38:30.080Z,2.40
2023-04-27T05:41:55.476Z,2.77
2023-04-27T05:45:19.443Z,2.40
2023-04-27T05:48:43.304Z,1.93
2023-04-27T05:52:07.274Z,2.67
2023-04-27T05:55:31.300Z,2.30
2023-04-27T05:58:56.536Z,2.40
2023-04-27T06:02:20.919Z,2.40
2023-04-27T06:05:44.908Z,2.20
2023-04-27T06:09:08.702Z,2.30
2023-04-27T06:12:32.791Z,2.37
2023-04-27T06:15:58.363Z,2.20
2023-04-27T06:19:22.238Z,2.63
2023-04-27T06:22:46.746Z,2.70
2023-04-27T06:26:11.085Z,2.30
2023-04-27T06:29:35.305Z,2.10
2023-04-27T06:33:00.543Z,2.20
2023-04-27T06:36:26.783Z,2.50
2023-04-27T06:39:50.760Z,2.30
2023-04-27T06:43:14.695Z,2.50
2023-04-27T06:46:39.542Z,1.93
2023-04-27T06:50:05.120Z,2.20
2023-04-27T06:53:29.580Z,2.73
2023-04-27T06:56:54.626Z,2.40
2023-04-27T07:00:20.717Z,2.53
2023-04-27T07:03:45.581Z,2.33
2023-04-27T07:07:11.178Z,2.40
2023-04-27T07:10:34.621Z,2.43
2023-04-27T07:13:58.542Z,2.53
2023-04-27T07:17:23.350Z,2.50
2023-04-27T07:20:48.181Z,2.73
2023-04-27T07:24:14.325Z,2.80
2023-04-27T07:27:38.582Z,2.47
2023-04-27T07:31:04.396Z,2.13
2023-04-27T07:34:35.036Z,2.70
2023-04-27T07:38:05.365Z,2.00
2023-04-27T07:41:30.588Z,2.40
2023-04-27T07:44:54.287Z,2.80
2023-04-27T07:48:18.225Z,2.30
2023-04-27T07:51:42.909Z,2.30
2023-04-27T07:55:08.149Z,2.33
2023-04-27T07:58:32.925Z,2.10
2023-04-27T08:02:07.079Z,2.17
2023-04-27T08:05:40.473Z,1.90
2023-04-27T08:09:04.963Z,2.13
2023-04-27T08:12:29.113Z,2.00
2023-04-27T08:15:58.351Z,1.80
2023-04-27T08:19:22.195Z,2.23
2023-04-27T08:22:45.776Z,2.33
2023-04-27T08:26:09.701Z,2.13
2023-04-27T08:29:33.710Z,2.27
2023-04-27T08:32:59.017Z,1.90
2023-04-27T08:36:24.903Z,1.80
2023-04-27T08:39:49.403Z,2.10
2023-04-27T08:43:13.329Z,1.83
2023-04-27T08:46:39.109Z,2.40
2023-04-27T08:50:05.111Z,1.87
2023-04-27T08:53:28.884Z,2.40
2023-04-27T08:56:52.399Z,2.03
2023-04-27T09:00:17.718Z,2.30
2023-04-27T09:03:41.635Z,1.93
2023-04-27T09:07:13.942Z,2.07
2023-04-27T09:10:46.230Z,2.30
2023-04-27T09:14:18.503Z,1.93
2023-04-27T09:17:42.358Z,2.00
2023-04-27T09:21:06.733Z,2.00
2023-04-27T09:24:31.882Z,2.03
2023-04-27T09:27:56.621Z,2.00
2023-04-27T09:31:20.964Z,1.93
2023-04-27T09:34:44.962Z,2.00
2023-04-27T09:38:08.883Z,1.90
2023-04-27T09:41:34.392Z,1.93
2023-04-27T09:45:00.626Z,1.90
2023-04-27T09:48:26.129Z,2.17
2023-04-27T09:51:50.068Z,2.37
2023-04-27T09:55:19.357Z,2.20
2023-04-27T09:59:07.074Z,1.77
2023-04-27T10:02:52.540Z,1.97
2023-04-27T10:06:52.431Z,2.00
2023-04-27T10:10:20.334Z,2.03
2023-04-27T10:13:55.253Z,1.93
2023-04-27T10:17:19.786Z,1.63
2023-04-27T10:20:45.254Z,1.87
2023-04-27T10:24:09.769Z,1.53
2023-04-27T10:27:41.196Z,2.30
2023-04-27T10:31:12.193Z,1.77
2023-04-27T10:34:37.853Z,1.90
2023-04-27T10:38:08.794Z,1.90
2023-04-27T10:41:36.643Z,2.03
2023-04-27T10:45:00.889Z,1.70
2023-04-27T10:48:26.098Z,1.93
2023-04-27T10:51:51.776Z,1.97
2023-04-27T10:55:17.658Z,2.00
2023-04-27T10:58:48.760Z,2.00
2023-04-27T11:02:13.390Z,1.70
2023-04-27T11:05:38.736Z,1.70
2023-04-27T11:09:06.436Z,2.03
2023-04-27T11:12:32.991Z,1.80
2023-04-27T11:15:58.570Z,2.10
2023-04-27T11:19:22.382Z,2.30
2023-04-27T11:22:48.153Z,2.10
2023-04-27T11:26:14.502Z,1.80
2023-04-27T11:29:41.524Z,1.87
2023-04-27T11:33:10.891Z,2.20
2023-04-27T11:36:34.657Z,1.83
2023-04-27T11:40:02.125Z,1.80
2023-04-27T11:43:27.704Z,1.53
2023-04-27T11:46:51.620Z,2.30
2023-04-27T11:50:15.588Z,2.13
2023-04-27T11:53:42.396Z,1.97
2023-04-27T11:57:08.848Z,2.20
2023-04-27T12:00:32.424Z,2.13
2023-04-27T12:03:56.366Z,1.83
2023-04-27T12:07:20.739Z,2.43
2023-04-27T12:10:45.376Z,1.70
2023-04-27T12:14:11.369Z,1.60
2023-04-27T12:17:35.800Z,1.73
2023-04-27T12:21:03.128Z,2.07
2023-04-27T12:24:27.387Z,1.97
2023-04-27T12:27:51.853Z,1.83
2023-04-27T12:31:18.840Z,2.10
2023-04-27T12:34:43.306Z,2.40
2023-04-27T12:38:07.127Z,1.90
2023-04-27T12:41:31.104Z,2.63
2023-04-27T12:44:55.497Z,2.33
2023-04-27T12:48:22.589Z,2.27
2023-04-27T12:51:47.870Z,2.50
2023-04-27T12:55:24.900Z,1.87
2023-04-27T12:58:55.676Z,2.03
2023-04-27T13:02:20.099Z,1.90
2023-04-27T13:05:45.633Z,1.93
2023-04-27T13:09:09.785Z,1.93
2023-04-27T13:12:35.218Z,1.80
2023-04-27T13:15:59.105Z,2.10
2023-04-27T13:19:23.135Z,1.93
2023-04-27T13:22:48.407Z,2.20
2023-04-27T13:26:12.760Z,1.90
2023-04-27T13:29:37.284Z,1.80
2023-04-27T13:33:14.222Z,2.10
2023-04-27T13:36:42.725Z,2.20
2023-04-27T13:40:11.298Z,1.70
2023-04-27T13:43:35.176Z,1.63
2023-04-27T13:46:59.073Z,1.73
2023-04-27T13:50:22.920Z,1.60
2023-04-27T13:53:47.321Z,1.97
2023-04-27T13:57:12.484Z,1.77
2023-04-27T14:00:37.373Z,1.60
2023-04-27T14:04:01.874Z,1.80
2023-04-27T14:07:26.080Z,1.57
2023-04-27T14:10:50.218Z,1.50
2023-04-27T14:14:15.944Z,1.93
2023-04-27T14:17:39.813Z,1.90
2023-04-27T14:21:03.845Z,1.60
2023-04-27T14:24:29.722Z,1.93
2023-04-27T14:27:53.545Z,1.60
2023-04-27T14:31:18.723Z,1.70
2023-04-27T14:34:42.546Z,2.03
2023-04-27T14:38:06.791Z,1.50
2023-04-27T14:41:30.720Z,1.50
2023-04-27T14:44:54.176Z,1.60
2023-04-27T14:48:19.456Z,2.37
2023-04-27T14:51:43.800Z,1.40
2023-04-27T14:55:08.775Z,1.30
2023-04-27T14:58:33.042Z,1.20
2023-04-27T15:01:57.169Z,1.47
2023-04-27T15:05:22.541Z,1.20
2023-04-27T15:08:47.664Z,1.33
2023-04-27T15:12:11.864Z,1.70
2023-04-27T15:15:35.539Z,1.40
2023-04-27T15:18:59.322Z,1.50
2023-04-27T15:22:24.802Z,1.50
2023-04-27T15:25:49.210Z,1.53
2023-04-27T15:29:13.180Z,1.60
2023-04-27T15:32:37.254Z,2.10
2023-04-27T15:36:01.257Z,1.47
2023-04-27T15:39:26.934Z,1.37
2023-04-27T15:42:50.876Z,1.50
2023-04-27T15:46:15.672Z,1.40
2023-04-27T15:49:49.944Z,1.40
2023-04-27T15:53:20.344Z,1.50
2023-04-27T15:56:45.849Z,1.50
2023-04-27T16:00:11.795Z,1.20
2023-04-27T16:03:37.511Z,1.50
2023-04-27T16:07:01.973Z,1.60
2023-04-27T16:10:26.047Z,1.87
2023-04-27T16:13:50.964Z,1.50
2023-04-27T16:17:15.004Z,1.50
2023-04-27T16:20:38.607Z,1.50
2023-04-27T16:24:02.432Z,1.70
2023-04-27T16:27:27.347Z,1.67
2023-04-27T16:30:52.863Z,1.67
2023-04-27T16:34:16.763Z,1.53
2023-04-27T16:37:40.552Z,1.60
2023-04-27T16:41:04.862Z,1.37
2023-04-27T16:44:28.742Z,1.77
2023-04-27T16:47:53.645Z,1.53
2023-04-27T16:51:17.488Z,1.77
2023-04-27T16:54:41.484Z,1.50
2023-04-27T16:58:05.335Z,1.40
2023-04-27T17:01:29.984Z,1.60
2023-04-27T17:04:55.961Z,1.40
2023-04-27T17:08:20.032Z,1.70
2023-04-27T17:11:43.931Z,1.47
2023-04-27T17:15:09.197Z,1.50
2023-04-27T17:18:34.097Z,1.60
2023-04-27T17:21:59.324Z,1.50
2023-04-27T17:25:23.281Z,1.43
2023-04-27T17:28:47.552Z,1.60
2023-04-27T17:32:11.624Z,1.60
2023-04-27T17:35:35.672Z,1.40
2023-04-27T17:39:01.212Z,1.50
2023-04-27T17:42:25.452Z,1.40
2023-04-27T17:45:49.235Z,1.50
2023-04-27T17:49:13.272Z,1.40
2023-04-27T17:52:37.555Z,1.40
2023-04-27T17:56:03.705Z,1.43
2023-04-27T17:59:27.547Z,1.63
2023-04-27T18:02:51.400Z,1.20
2023-04-27T18:06:15.308Z,1.40
2023-04-27T18:09:38.824Z,1.50
2023-04-27T18:13:03.979Z,1.60
2023-04-27T18:16:27.801Z,1.50
2023-04-27T18:20:00.930Z,1.70
2023-04-27T18:23:30.757Z,1.77
2023-04-27T18:26:54.344Z,1.60
2023-04-27T18:30:19.395Z,1.43
2023-04-27T18:33:44.229Z,1.40
2023-04-27T18:37:07.912Z,1.60
2023-04-27T18:40:32.714Z,1.37
2023-04-27T18:44:03.202Z,1.30
2023-04-27T18:47:28.142Z,1.40
2023-04-27T18:50:51.912Z,1.30
2023-04-27T18:54:15.871Z,1.27
2023-04-27T18:57:39.685Z,1.50
2023-04-27T19:01:03.476Z,1.63
2023-04-27T19:04:28.684Z,1.70
2023-04-27T19:07:52.696Z,2.10
2023-04-27T19:11:19.294Z,1.90
2023-04-27T19:14:43.079Z,1.97
2023-04-27T19:18:11.108Z,1.70
2023-04-27T19:21:36.312Z,1.73
2023-04-27T19:24:59.775Z,1.57
2023-04-27T19:28:23.387Z,1.53
2023-04-27T19:31:46.840Z,1.70
2023-04-27T19:35:12.483Z,1.40
2023-04-27T19:38:37.703Z,1.40
2023-04-27T19:42:01.627Z,1.50
2023-04-27T19:45:25.811Z,1.83
2023-04-27T19:48:49.964Z,1.60
2023-04-27T19:52:14.057Z,1.83
2023-04-27T19:55:40.439Z,1.50
2023-04-27T19:59:04.390Z,1.60
2023-04-27T20:02:28.907Z,1.70
2023-04-27T20:05:53.137Z,2.10
2023-04-27T20:09:17.292Z,1.50
2023-04-27T20:12:55.181Z,2.07
2023-04-27T20:16:21.561Z,1.40
2023-04-27T20:19:46.116Z,1.53
2023-04-27T20:23:09.991Z,1.60
2023-04-27T20:26:34.006Z,1.97
2023-04-27T20:29:59.243Z,1.80
2023-04-27T20:33:23.280Z,1.73
2023-04-27T20:36:47.170Z,1.80
2023-04-27T20:40:14.524Z,1.67
2023-04-27T20:43:40.329Z,2.27
2023-04-27T20:47:05.637Z,1.70
2023-04-27T20:50:29.629Z,1.80
2023-04-27T20:53:53.606Z,1.37
2023-04-27T20:57:17.411Z,1.53
2023-04-27T21:00:41.720Z,1.73
2023-04-27T21:04:07.362Z,1.80
2023-04-27T21:07:30.992Z,1.20
2023-04-27T21:10:54.662Z,1.80
2023-04-27T21:14:18.185Z,1.50
2023-04-27T21:17:41.756Z,1.40
2023-04-27T21:21:06.909Z,1.60
2023-04-27T21:24:30.418Z,1.57
2023-04-27T21:27:53.871Z,1.63
2023-04-27T21:31:19.993Z,1.50
2023-04-27T21:34:44.170Z,1.63
2023-04-27T21:38:08.912Z,1.50
2023-04-27T21:41:32.437Z,1.67
2023-04-27T21:44:57.489Z,1.70
2023-04-27T21:48:20.904Z,1.60
2023-04-27T21:51:44.377Z,1.73
2023-04-27T21:55:10.005Z,1.90
2023-04-27T21:58:33.695Z,1.70
2023-04-27T22:01:59.163Z,2.00
2023-04-27T22:05:23.091Z,1.50
2023-04-27T22:08:47.175Z,2.00
2023-04-27T22:12:12.482Z,2.47
2023-04-27T22:15:36.425Z,2.10
2023-04-27T22:19:00.109Z,2.07
2023-04-27T22:22:23.894Z,2.10
2023-04-27T22:25:47.643Z,1.80
2023-04-27T22:29:12.991Z,1.97
2023-04-27T22:32:36.512Z,1.87
2023-04-27T22:36:03.037Z,2.80
2023-04-27T22:39:26.971Z,1.80
2023-04-27T22:42:50.703Z,2.30
2023-04-27T22:46:15.853Z,1.80
2023-04-27T22:49:39.720Z,2.10
2023-04-27T22:53:03.629Z,1.80
2023-04-27T22:56:27.035Z,2.00
2023-04-27T22:59:51.516Z,1.80
2023-04-27T23:03:16.788Z,1.80
2023-04-27T23:06:40.830Z,1.90
2023-04-27T23:10:05.809Z,1.70
2023-04-27T23:13:29.681Z,1.87
2023-04-27T23:16:53.469Z,1.80
2023-04-27T23:20:28.000Z,1.60
2023-04-27T23:23:52.209Z,1.60
2023-04-27T23:27:16.169Z,1.47
2023-04-27T23:30:40.015Z,1.50
2023-04-27T23:34:03.849Z,1.80
2023-04-27T23:37:29.000Z,1.60
2023-04-27T23:40:52.841Z,1.73
2023-04-27T23:44:16.839Z,1.70
2023-04-27T23:47:41.408Z,1.90
2023-04-27T23:51:06.063Z,1.90
2023-04-27T23:54:33.215Z,1.50
2023-04-27T23:57:57.166Z,1.90
